Time;durP1;ratioP1;P1;durP2;ratioP2;P2;SDS_P1;SDS_P2;PMS_P1;PMS_P2;Temp;Humidity;BMP_temperature;BMP_pressure;BME280_temperature;BME280_humidity;BME280_pressure;Samples;Min_cycle;Max_cycle;Signal;HPM_P1;HPM_P2
2023/05/15 00:00:44;;;;;;;7.38;4.75;;;;;;;;;;5096842;28;20135;-77
2023/05/15 00:03:11;;;;;;;7.38;4.10;;;;;;;;;;5096964;28;20516;-78
2023/05/15 00:05:40;;;;;;;6.25;4.35;;;;;;;;;;5096196;28;20055;-79
2023/05/15 00:08:08;;;;;;;5.40;3.47;;;;;;;;;;5096253;28;20054;-79
2023/05/15 00:10:35;;;;;;;7.10;4.20;;;;;;;;;;5096138;28;20048;-79
2023/05/15 00:13:01;;;;;;;6.68;4.05;;;;;;;;;;5096730;28;20130;-78
2023/05/15 00:15:39;;;;;;;;;;;;;;;;;;;;;
2023/05/15 00:18:06;;;;;;;6.53;4.38;;;;;;;;;;5096697;28;20135;-78
2023/05/15 00:20:32;;;;;;;6.13;4.55;;;;;;;;;;5095616;28;20135;-76
2023/05/15 00:22:59;;;;;;;6.75;3.80;;;;;;;;;;5096108;28;20134;-78
2023/05/15 00:25:27;;;;;;;7.10;4.90;;;;;;;;;;5096435;28;20075;-78
2023/05/15 00:27:54;;;;;;;7.57;4.43;;;;;;;;;;5099300;28;20683;-78
2023/05/15 00:30:21;;;;;;;6.63;4.75;;;;;;;;;;5099776;28;20475;-77
2023/05/15 00:32:48;;;;;;;6.68;4.35;;;;;;;;;;5099518;28;20123;-79
2023/05/15 00:35:15;;;;;;;6.43;4.50;;;;;;;;;;5100166;28;20105;-77
2023/05/15 00:37:43;;;;;;;6.72;4.97;;;;;;;;;;5098562;28;20055;-78
2023/05/15 00:40:17;;;;;;;8.00;5.60;;;;;;;;;;5098436;28;20052;-78
2023/05/15 00:42:49;;;;;;;7.13;4.43;;;;;;;;;;5098911;28;20055;-78
2023/05/15 00:45:17;;;;;;;7.43;4.50;;;;;;;;;;5100430;28;20052;-78
2023/05/15 00:47:45;;;;;;;7.97;5.45;;;;;;;;;;5098181;28;20128;-78
2023/05/15 00:50:12;;;;;;;7.95;5.63;;;;;;;;;;5098204;28;20127;-76
2023/05/15 00:52:39;;;;;;;7.32;5.00;;;;;;;;;;5097844;28;20052;-78
2023/05/15 00:55:06;;;;;;;7.47;4.85;;;;;;;;;;5100290;28;20425;-77
2023/05/15 00:57:33;;;;;;;7.15;5.50;;;;;;;;;;5111537;28;20052;-77
2023/05/15 01:00:05;;;;;;;7.72;5.32;;;;;;;;;;5098339;28;20123;-77
2023/05/15 01:02:32;;;;;;;8.80;5.90;;;;;;;;;;5086286;28;20451;-77
2023/05/15 01:04:59;;;;;;;7.53;5.30;;;;;;;;;;5074643;28;20048;-78
2023/05/15 01:07:25;;;;;;;8.95;5.00;;;;;;;;;;5075133;28;20044;-77
2023/05/15 01:09:53;;;;;;;9.05;5.40;;;;;;;;;;5074582;28;20120;-77
2023/05/15 01:15:43;;;;;;;9.52;6.15;;;;;;;;;;5074050;28;20043;-78
2023/05/15 01:18:13;;;;;;;7.45;5.38;;;;;;;;;;5079255;28;20140;-78
2023/05/15 01:21:01;;;;;;;8.63;6.13;;;;;;;;;;5079495;28;20048;-76
2023/05/15 01:23:48;;;;;;;10.63;5.97;;;;;;;;;;5077394;28;20557;-78
2023/05/15 01:26:41;;;;;;;9.80;6.20;;;;;;;;;;5076426;28;20041;-78
2023/05/15 01:29:18;;;;;;;9.40;6.00;;;;;;;;;;5076815;28;20063;-78
2023/05/15 01:31:48;;;;;;;8.90;5.78;;;;;;;;;;5077155;28;20048;-76
2023/05/15 01:34:17;;;;;;;8.50;6.05;;;;;;;;;;5078168;28;20159;-77
2023/05/15 01:36:48;;;;;;;9.15;5.95;;;;;;;;;;5078698;28;20067;-78
2023/05/15 01:39:21;;;;;;;8.77;5.75;;;;;;;;;;5075089;28;20084;-78
2023/05/15 01:41:54;;;;;;;8.30;5.57;;;;;;;;;;5076465;28;20048;-78
2023/05/15 01:44:27;;;;;;;9.27;5.95;;;;;;;;;;5076716;28;20044;-79
2023/05/15 01:46:58;;;;;;;9.40;6.30;;;;;;;;;;5076321;28;20143;-77
2023/05/15 01:49:26;;;;;;;;;;;;;;;;;;5076389;28;20067;-78
2023/05/15 01:52:01;;;;;;;8.57;5.60;;;;;;;;;;5081306;28;20003;-78
2023/05/15 01:54:29;;;;;;;9.38;5.75;;;;;;;;;;5087696;28;20388;-78
2023/05/15 01:56:57;;;;;;;8.90;5.35;;;;;;;;;;5078129;28;20052;-79
2023/05/15 01:59:26;;;;;;;9.77;6.57;;;;;;;;;;5077282;28;20057;-77
2023/05/15 02:01:53;;;;;;;9.30;5.68;;;;;;;;;;5078936;28;20079;-79
2023/05/15 02:04:20;;;;;;;9.80;5.80;;;;;;;;;;5096002;28;20044;-77
2023/05/15 02:06:49;;;;;;;9.07;6.18;;;;;;;;;;5095448;28;20040;-78
2023/05/15 02:09:16;;;;;;;9.27;6.13;;;;;;;;;;5096196;28;20048;-78
2023/05/15 02:11:43;;;;;;;8.75;5.53;;;;;;;;;;5095602;28;20108;-78
2023/05/15 02:14:12;;;;;;;8.60;5.90;;;;;;;;;;5097207;28;20048;-79
2023/05/15 02:16:40;;;;;;;9.55;6.57;;;;;;;;;;5099908;28;20048;-76
2023/05/15 02:19:07;;;;;;;12.57;7.63;;;;;;;;;;5107488;28;20061;-77
2023/05/15 02:21:34;;;;;;;10.80;6.47;;;;;;;;;;5105945;28;20055;-76
2023/05/15 02:24:01;;;;;;;10.07;6.45;;;;;;;;;;5104381;28;20040;-78
2023/05/15 02:26:36;;;;;;;10.20;6.38;;;;;;;;;;5095229;28;20508;-76
2023/05/15 02:29:11;;;;;;;10.93;6.97;;;;;;;;;;5094244;28;20131;-77
2023/05/15 02:31:44;;;;;;;11.00;6.53;;;;;;;;;;5093657;28;20043;-77
2023/05/15 02:34:18;;;;;;;11.30;7.05;;;;;;;;;;5094636;28;20044;-78
2023/05/15 02:36:47;;;;;;;11.80;7.30;;;;;;;;;;5094247;28;20079;-78
2023/05/15 02:39:16;;;;;;;12.57;8.00;;;;;;;;;;5094824;28;20056;-77
2023/05/15 02:41:44;;;;;;;10.95;7.20;;;;;;;;;;5095446;28;20105;-78
2023/05/15 02:44:13;;;;;;;10.75;6.93;;;;;;;;;;5097086;28;20079;-78
2023/05/15 02:46:42;;;;;;;10.98;7.15;;;;;;;;;;5095093;28;20047;-78
2023/05/15 02:49:09;;;;;;;13.68;8.07;;;;;;;;;;5095983;28;20136;-77
2023/05/15 02:51:37;;;;;;;12.80;8.38;;;;;;;;;;5093882;28;20048;-77
2023/05/15 02:54:05;;;;;;;13.55;8.30;;;;;;;;;;5093881;28;20130;-78
2023/05/15 02:56:31;;;;;;;12.68;7.57;;;;;;;;;;5094716;28;20297;-77
2023/05/15 02:58:58;;;;;;;13.52;7.57;;;;;;;;;;5094623;28;20066;-76
2023/05/15 03:01:25;;;;;;;14.25;8.82;;;;;;;;;;5095870;28;20582;-77
2023/05/15 03:03:53;;;;;;;13.45;8.23;;;;;;;;;;5095549;28;20048;-77
2023/05/15 03:06:20;;;;;;;13.95;9.07;;;;;;;;;;5095287;28;20048;-77
2023/05/15 03:08:46;;;;;;;15.27;9.45;;;;;;;;;;5094596;28;20076;-78
2023/05/15 03:11:13;;;;;;;14.75;9.52;;;;;;;;;;5095860;28;20048;-78
2023/05/15 03:13:40;;;;;;;12.57;8.57;;;;;;;;;;5097542;28;20108;-78
2023/05/15 03:16:06;;;;;;;13.55;8.63;;;;;;;;;;5096949;28;20127;-79
2023/05/15 03:18:33;;;;;;;14.85;9.38;;;;;;;;;;5097635;28;20098;-78
2023/05/15 03:21:01;;;;;;;14.20;9.77;;;;;;;;;;5097394;28;20048;-79
2023/05/15 03:23:28;;;;;;;12.77;8.95;;;;;;;;;;5096804;28;20100;-78
2023/05/15 03:25:54;;;;;;;12.73;8.55;;;;;;;;;;5099372;28;20044;-77
2023/05/15 03:28:21;;;;;;;11.98;8.35;;;;;;;;;;5094031;28;20051;-78
2023/05/15 03:30:47;;;;;;;13.70;8.48;;;;;;;;;;5092016;28;20127;-78
2023/05/15 03:33:14;;;;;;;14.02;7.53;;;;;;;;;;5091693;28;20127;-77
2023/05/15 03:35:41;;;;;;;12.65;8.30;;;;;;;;;;5091975;28;20044;-76
2023/05/15 03:38:09;;;;;;;12.15;8.02;;;;;;;;;;5092147;28;20040;-76
2023/05/15 03:40:38;;;;;;;13.13;8.07;;;;;;;;;;5091838;28;20134;-76
2023/05/15 03:43:04;;;;;;;12.07;8.00;;;;;;;;;;5091531;28;20486;-76
2023/05/15 03:45:33;;;;;;;12.02;7.55;;;;;;;;;;5091759;28;20101;-76
2023/05/15 03:47:59;;;;;;;11.18;7.30;;;;;;;;;;5091788;28;20079;-76
2023/05/15 03:50:26;;;;;;;10.93;7.20;;;;;;;;;;5091746;28;20060;-77
2023/05/15 03:52:53;;;;;;;11.25;7.30;;;;;;;;;;5092151;28;20582;-76
2023/05/15 03:55:21;;;;;;;11.52;7.57;;;;;;;;;;5098872;28;20076;-76
2023/05/15 03:57:47;;;;;;;11.23;7.10;;;;;;;;;;5099001;28;20505;-76
2023/05/15 04:00:14;;;;;;;10.48;6.97;;;;;;;;;;5097549;28;20120;-78
2023/05/15 04:02:41;;;;;;;11.60;7.80;;;;;;;;;;5090922;28;20048;-77
2023/05/15 04:05:09;;;;;;;10.68;7.18;;;;;;;;;;5079119;28;20418;-77
2023/05/15 04:07:36;;;;;;;11.05;7.30;;;;;;;;;;5077971;28;20052;-76
2023/05/15 04:10:04;;;;;;;10.60;7.22;;;;;;;;;;5075903;28;20132;-77
2023/05/15 04:12:34;;;;;;;11.18;7.40;;;;;;;;;;5075218;28;20128;-77
2023/05/15 04:15:14;;;;;;;12.32;7.35;;;;;;;;;;5075452;28;20048;-77
2023/05/15 04:17:41;;;;;;;10.13;6.82;;;;;;;;;;5074959;28;20487;-77
2023/05/15 04:20:08;;;;;;;12.10;7.90;;;;;;;;;;5075914;28;20052;-78
2023/05/15 04:22:35;;;;;;;11.27;6.93;;;;;;;;;;5075126;28;20048;-77
2023/05/15 04:25:02;;;;;;;11.45;6.65;;;;;;;;;;5075074;28;20414;-77
2023/05/15 04:27:28;;;;;;;11.38;7.53;;;;;;;;;;5074720;28;20055;-77
2023/05/15 04:29:56;;;;;;;10.88;6.88;;;;;;;;;;5074872;28;20205;-77
2023/05/15 04:32:23;;;;;;;12.10;6.82;;;;;;;;;;5074605;28;20119;-77
2023/05/15 04:34:49;;;;;;;10.90;7.40;;;;;;;;;;5074994;28;20131;-77
2023/05/15 04:37:16;;;;;;;13.18;7.90;;;;;;;;;;5074841;28;20472;-78
2023/05/15 04:39:43;;;;;;;12.13;7.25;;;;;;;;;;5074950;28;20044;-77
2023/05/15 04:42:10;;;;;;;9.73;6.93;;;;;;;;;;5074118;28;20131;-77
2023/05/15 04:44:36;;;;;;;10.38;6.50;;;;;;;;;;5074458;28;20051;-76
2023/05/15 04:47:05;;;;;;;10.50;6.97;;;;;;;;;;5074629;28;20048;-76
2023/05/15 04:49:31;;;;;;;13.55;7.30;;;;;;;;;;5074557;28;20047;-76
2023/05/15 04:51:58;;;;;;;11.32;7.47;;;;;;;;;;5074554;28;20108;-76
2023/05/15 04:54:25;;;;;;;11.02;7.47;;;;;;;;;;5074669;28;20127;-76
2023/05/15 04:56:51;;;;;;;10.43;7.53;;;;;;;;;;5074559;28;20045;-77
2023/05/15 04:59:18;;;;;;;11.73;7.32;;;;;;;;;;5074746;28;20064;-78
2023/05/15 05:01:45;;;;;;;11.60;7.45;;;;;;;;;;5074480;28;20121;-77
2023/05/15 05:04:13;;;;;;;11.27;7.57;;;;;;;;;;5074646;28;20080;-77
2023/05/15 05:06:40;;;;;;;12.90;7.68;;;;;;;;;;5074294;28;20136;-77
2023/05/15 05:09:06;;;;;;;10.45;6.90;;;;;;;;;;5074021;28;20097;-76
2023/05/15 05:11:33;;;;;;;12.35;7.43;;;;;;;;;;5074246;28;20083;-76
2023/05/15 05:13:59;;;;;;;13.00;7.38;;;;;;;;;;5073054;28;20048;-77
2023/05/15 05:16:26;;;;;;;14.10;8.45;;;;;;;;;;5074580;28;20132;-77
2023/05/15 05:18:53;;;;;;;14.30;7.63;;;;;;;;;;5074214;28;20045;-78
2023/05/15 05:21:21;;;;;;;13.50;7.53;;;;;;;;;;5074172;28;20546;-77
2023/05/15 05:23:47;;;;;;;12.45;8.65;;;;;;;;;;5074019;28;20050;-77
2023/05/15 05:26:14;;;;;;;12.20;7.70;;;;;;;;;;5074137;28;20116;-77
2023/05/15 05:28:40;;;;;;;12.20;8.18;;;;;;;;;;5073377;28;20071;-77
2023/05/15 05:31:07;;;;;;;11.23;7.80;;;;;;;;;;5074045;28;20044;-77
2023/05/15 05:33:34;;;;;;;12.07;8.02;;;;;;;;;;5073581;28;20083;-77
2023/05/15 05:36:00;;;;;;;12.23;7.93;;;;;;;;;;5074237;28;20127;-76
2023/05/15 05:38:28;;;;;;;12.80;9.15;;;;;;;;;;5073547;28;20055;-77
2023/05/15 05:41:00;;;;;;;12.57;8.05;;;;;;;;;;5073531;28;20496;-76
2023/05/15 05:43:27;;;;;;;12.77;8.23;;;;;;;;;;5073729;28;20048;-76
2023/05/15 05:45:54;;;;;;;13.15;8.05;;;;;;;;;;5073524;28;20048;-76
2023/05/15 05:48:21;;;;;;;12.75;7.88;;;;;;;;;;5073446;28;20048;-77
2023/05/15 05:50:47;;;;;;;12.70;8.60;;;;;;;;;;5073496;28;20083;-77
2023/05/15 05:53:14;;;;;;;12.50;8.57;;;;;;;;;;5073337;28;20041;-76
2023/05/15 05:55:42;;;;;;;12.75;8.60;;;;;;;;;;5073199;28;20053;-77
2023/05/15 05:58:09;;;;;;;13.80;8.38;;;;;;;;;;5073060;28;20048;-76
2023/05/15 06:00:36;;;;;;;13.68;8.43;;;;;;;;;;5073900;28;20434;-78
2023/05/15 06:03:03;;;;;;;11.32;8.20;;;;;;;;;;5089307;28;20079;-78
2023/05/15 06:05:30;;;;;;;13.15;8.82;;;;;;;;;;5098818;28;20127;-79
2023/05/15 06:07:56;;;;;;;13.45;8.70;;;;;;;;;;5096867;28;20056;-77
2023/05/15 06:10:23;;;;;;;12.23;8.60;;;;;;;;;;5094304;28;20517;-76
2023/05/15 06:12:51;;;;;;;12.75;8.35;;;;;;;;;;5096064;28;20040;-77
2023/05/15 06:15:18;;;;;;;13.25;8.32;;;;;;;;;;5096133;28;20055;-76
2023/05/15 06:17:44;;;;;;;12.50;8.57;;;;;;;;;;5095393;28;20131;-77
2023/05/15 06:20:12;;;;;;;13.27;8.23;;;;;;;;;;5094833;28;20044;-77
2023/05/15 06:22:39;;;;;;;12.93;8.48;;;;;;;;;;5094396;28;20112;-76
2023/05/15 06:25:07;;;;;;;11.77;8.35;;;;;;;;;;5093943;28;20048;-76
2023/05/15 06:27:34;;;;;;;11.65;7.78;;;;;;;;;;5094075;28;20050;-78
2023/05/15 06:30:02;;;;;;;12.98;7.90;;;;;;;;;;5093719;28;20097;-76
2023/05/15 06:32:29;;;;;;;11.02;7.80;;;;;;;;;;5092643;28;20054;-77
2023/05/15 06:34:56;;;;;;;11.57;7.57;;;;;;;;;;5092971;28;20048;-77
2023/05/15 06:37:22;;;;;;;11.88;7.85;;;;;;;;;;5092515;28;20044;-77
2023/05/15 06:39:49;;;;;;;11.57;7.88;;;;;;;;;;5093225;28;20172;-77
2023/05/15 06:42:16;;;;;;;11.32;7.78;;;;;;;;;;5092451;28;20048;-78
2023/05/15 06:44:42;;;;;;;11.32;7.13;;;;;;;;;;5092617;28;20101;-78
2023/05/15 06:47:10;;;;;;;11.02;7.45;;;;;;;;;;5092663;28;20172;-77
2023/05/15 06:49:37;;;;;;;13.93;8.68;;;;;;;;;;5092782;28;20047;-78
2023/05/15 06:52:04;;;;;;;9.80;6.50;;;;;;;;;;5092290;28;20127;-78
2023/05/15 06:54:31;;;;;;;8.38;6.40;;;;;;;;;;5092607;28;20132;-77
2023/05/15 06:56:58;;;;;;;11.02;6.88;;;;;;;;;;5092932;28;20127;-77
2023/05/15 06:59:24;;;;;;;10.43;7.65;;;;;;;;;;5092006;28;20133;-78
2023/05/15 07:01:51;;;;;;;10.68;7.50;;;;;;;;;;5089442;28;20150;-77
2023/05/15 07:04:19;;;;;;;9.95;7.38;;;;;;;;;;5071748;28;20051;-77
2023/05/15 07:06:46;;;;;;;10.90;7.78;;;;;;;;;;5072055;28;20048;-76
2023/05/15 07:09:13;;;;;;;10.65;7.57;;;;;;;;;;5071773;28;20045;-76
2023/05/15 07:11:41;;;;;;;10.52;7.40;;;;;;;;;;5072110;28;20051;-77
2023/05/15 07:14:07;;;;;;;11.88;7.65;;;;;;;;;;5071549;28;20072;-77
2023/05/15 07:16:34;;;;;;;10.00;7.65;;;;;;;;;;5072076;28;20076;-77
2023/05/15 07:19:00;;;;;;;10.23;5.82;;;;;;;;;;5071938;28;20127;-80
2023/05/15 07:21:28;;;;;;;9.10;6.70;;;;;;;;;;5071640;28;20135;-77
2023/05/15 07:23:55;;;;;;;9.25;6.57;;;;;;;;;;5071520;28;20042;-78
2023/05/15 07:26:22;;;;;;;8.52;5.97;;;;;;;;;;5071976;28;20393;-77
2023/05/15 07:28:48;;;;;;;8.52;5.88;;;;;;;;;;5071649;28;20527;-78
2023/05/15 07:31:15;;;;;;;9.95;6.70;;;;;;;;;;5072003;28;20054;-77
2023/05/15 07:33:42;;;;;;;8.82;5.78;;;;;;;;;;5071581;28;20048;-77
2023/05/15 07:36:09;;;;;;;8.52;5.75;;;;;;;;;;5071571;28;20051;-77
2023/05/15 07:38:37;;;;;;;8.25;5.55;;;;;;;;;;5072408;28;20086;-78
2023/05/15 07:41:03;;;;;;;8.40;5.72;;;;;;;;;;5072946;28;20194;-78
2023/05/15 07:43:30;;;;;;;8.13;5.93;;;;;;;;;;5071526;28;20059;-77
2023/05/15 07:45:57;;;;;;;8.55;6.22;;;;;;;;;;5071114;28;20106;-77
2023/05/15 07:48:23;;;;;;;8.95;5.78;;;;;;;;;;5071460;28;20080;-77
2023/05/15 07:50:51;;;;;;;8.30;5.95;;;;;;;;;;5071272;28;20469;-77
2023/05/15 07:53:17;;;;;;;7.75;5.20;;;;;;;;;;5071527;28;20170;-77
2023/05/15 07:55:46;;;;;;;8.27;5.65;;;;;;;;;;5071199;28;20076;-78
2023/05/15 07:58:13;;;;;;;8.50;6.13;;;;;;;;;;5071288;28;20476;-78
2023/05/15 08:00:40;;;;;;;8.27;5.10;;;;;;;;;;5071035;28;20094;-76
2023/05/15 08:03:06;;;;;;;9.82;5.60;;;;;;;;;;5071365;28;20484;-78
2023/05/15 08:05:33;;;;;;;7.25;4.60;;;;;;;;;;5072190;28;20047;-76
2023/05/15 08:08:00;;;;;;;7.45;4.97;;;;;;;;;;5071279;28;20045;-77
2023/05/15 08:10:27;;;;;;;8.60;5.35;;;;;;;;;;5070961;28;20045;-77
2023/05/15 08:12:55;;;;;;;7.13;5.35;;;;;;;;;;5071135;28;20075;-76
2023/05/15 08:15:22;;;;;;;7.38;5.30;;;;;;;;;;5071192;28;20048;-78
2023/05/15 08:17:48;;;;;;;8.30;5.22;;;;;;;;;;5071212;28;20135;-77
2023/05/15 08:20:16;;;;;;;7.68;5.85;;;;;;;;;;5071309;28;20060;-78
2023/05/15 08:22:42;;;;;;;7.85;5.40;;;;;;;;;;5071259;28;20308;-77
2023/05/15 08:25:10;;;;;;;7.43;5.38;;;;;;;;;;5071081;28;20132;-77
2023/05/15 08:27:36;;;;;;;6.88;5.78;;;;;;;;;;5071058;28;20437;-76
2023/05/15 08:30:06;;;;;;;7.22;4.82;;;;;;;;;;5071016;28;20051;-76
2023/05/15 08:32:32;;;;;;;8.02;5.38;;;;;;;;;;5070968;28;20122;-77
2023/05/15 08:34:59;;;;;;;7.82;4.70;;;;;;;;;;5071251;28;20057;-78
2023/05/15 08:37:26;;;;;;;7.10;5.15;;;;;;;;;;5071332;28;20044;-77
2023/05/15 08:39:52;;;;;;;6.78;4.75;;;;;;;;;;5071070;28;20051;-77
2023/05/15 08:42:24;;;;;;;8.98;5.15;;;;;;;;;;5070427;28;20132;-77
2023/05/15 08:44:51;;;;;;;7.25;5.00;;;;;;;;;;5070979;28;20052;-78
2023/05/15 08:47:19;;;;;;;7.78;4.95;;;;;;;;;;5070794;28;20101;-77
2023/05/15 08:49:56;;;;;;;10.88;6.22;;;;;;;;;;5075401;28;20515;-78
2023/05/15 08:52:23;;;;;;;6.82;5.05;;;;;;;;;;5074165;28;20088;-77
2023/05/15 08:54:50;;;;;;;8.20;5.32;;;;;;;;;;5074370;28;20491;-78
2023/05/15 08:57:17;;;;;;;7.70;5.07;;;;;;;;;;5074080;28;20048;-78
2023/05/15 08:59:44;;;;;;;7.90;5.15;;;;;;;;;;5074558;28;20051;-76
2023/05/15 09:02:10;;;;;;;9.23;5.15;;;;;;;;;;5078444;28;20043;-77
2023/05/15 09:04:38;;;;;;;6.68;4.80;;;;;;;;;;5094694;28;20068;-76
2023/05/15 09:07:05;;;;;;;9.27;5.68;;;;;;;;;;5094384;28;20044;-77
2023/05/15 09:09:34;;;;;;;9.43;6.20;;;;;;;;;;5094168;28;20044;-77
2023/05/15 09:12:01;;;;;;;9.55;6.20;;;;;;;;;;5093678;28;20491;-78
2023/05/15 09:14:28;;;;;;;10.50;5.03;;;;;;;;;;5094357;28;20044;-76
2023/05/15 09:16:55;;;;;;;9.73;5.72;;;;;;;;;;5094292;28;20581;-79
2023/05/15 09:19:22;;;;;;;7.88;5.20;;;;;;;;;;5094309;28;20050;-77
2023/05/15 09:21:50;;;;;;;8.73;5.50;;;;;;;;;;5093550;28;20052;-76
2023/05/15 09:24:20;;;;;;;6.88;4.90;;;;;;;;;;5094231;28;20040;-77
2023/05/15 09:26:48;;;;;;;7.47;5.03;;;;;;;;;;5094282;28;20044;-77
2023/05/15 09:29:17;;;;;;;9.35;6.43;;;;;;;;;;5094060;28;20130;-77
2023/05/15 09:31:47;;;;;;;6.88;5.05;;;;;;;;;;5094067;28;20047;-77
2023/05/15 09:34:14;;;;;;;6.63;4.50;;;;;;;;;;5093892;28;20093;-78
2023/05/15 09:36:43;;;;;;;7.53;5.13;;;;;;;;;;5094086;28;20135;-77
2023/05/15 09:39:12;;;;;;;6.35;4.28;;;;;;;;;;5093894;28;20059;-77
2023/05/15 09:41:43;;;;;;;6.05;4.00;;;;;;;;;;5093681;28;20109;-78
2023/05/15 09:44:18;;;;;;;7.13;5.13;;;;;;;;;;5093648;28;20063;-77
2023/05/15 09:46:45;;;;;;;8.10;5.30;;;;;;;;;;5093378;28;20048;-76
2023/05/15 09:49:12;;;;;;;6.85;4.50;;;;;;;;;;5093455;28;20055;-77
2023/05/15 09:51:39;;;;;;;9.05;5.07;;;;;;;;;;5093329;28;20421;-77
2023/05/15 09:54:06;;;;;;;6.05;4.70;;;;;;;;;;5094510;28;20134;-78
2023/05/15 09:56:34;;;;;;;6.15;4.13;;;;;;;;;;5094623;28;20044;-78
2023/05/15 09:59:00;;;;;;;7.75;5.00;;;;;;;;;;5092795;28;20044;-77
2023/05/15 10:01:27;;;;;;;8.77;6.10;;;;;;;;;;5093379;28;20131;-77
2023/05/15 10:03:58;;;;;;;8.23;5.20;;;;;;;;;;5073849;28;20053;-77
2023/05/15 10:06:25;;;;;;;8.18;5.43;;;;;;;;;;5073049;28;20040;-78
2023/05/15 10:08:53;;;;;;;8.95;5.75;;;;;;;;;;5072933;28;20068;-77
2023/05/15 10:11:21;;;;;;;8.48;6.00;;;;;;;;;;5074200;28;20048;-75
2023/05/15 10:13:49;;;;;;;8.18;5.68;;;;;;;;;;5075555;28;20056;-77
2023/05/15 10:16:18;;;;;;;9.05;6.03;;;;;;;;;;5075648;28;20113;-76
2023/05/15 10:18:45;;;;;;;6.40;4.68;;;;;;;;;;5074925;28;20041;-77
2023/05/15 10:21:13;;;;;;;7.75;5.10;;;;;;;;;;5075203;28;20055;-76
2023/05/15 10:23:42;;;;;;;8.70;5.97;;;;;;;;;;5113859;22;20045;-77
2023/05/15 10:26:21;;;;;;;8.65;6.35;;;;;;;;;;5087324;28;20056;-77
2023/05/15 10:28:50;;;;;;;9.35;6.65;;;;;;;;;;5075235;28;20053;-77
2023/05/15 10:31:18;;;;;;;8.35;6.03;;;;;;;;;;5073752;28;20135;-78
2023/05/15 10:33:45;;;;;;;9.10;6.18;;;;;;;;;;5073903;28;20048;-78
2023/05/15 10:36:13;;;;;;;8.35;6.10;;;;;;;;;;5072805;28;20080;-78
2023/05/15 10:38:40;;;;;;;10.55;6.80;;;;;;;;;;5072778;28;20521;-78
2023/05/15 10:41:07;;;;;;;9.13;6.70;;;;;;;;;;5072333;28;20044;-78
2023/05/15 10:43:35;;;;;;;8.90;5.30;;;;;;;;;;5072798;28;20131;-78
2023/05/15 10:46:05;;;;;;;8.00;5.78;;;;;;;;;;5077242;28;20070;-78
2023/05/15 10:48:33;;;;;;;7.90;5.83;;;;;;;;;;5079555;28;20407;-78
2023/05/15 10:51:00;;;;;;;8.60;6.53;;;;;;;;;;5073276;28;20044;-77
2023/05/15 10:53:27;;;;;;;9.25;5.70;;;;;;;;;;5071906;28;20045;-78
2023/05/15 10:55:54;;;;;;;7.28;5.20;;;;;;;;;;5072342;28;20127;-77
2023/05/15 10:58:22;;;;;;;6.32;4.03;;;;;;;;;;5071787;28;20127;-77
2023/05/15 11:00:49;;;;;;;23.73;7.07;;;;;;;;;;5071874;28;20083;-78
2023/05/15 11:03:36;;;;;;;9.75;5.35;;;;;;;;;;5071504;28;20426;-77
2023/05/15 11:06:10;;;;;;;7.85;4.60;;;;;;;;;;5071729;28;20044;-77
2023/05/15 11:08:38;;;;;;;7.70;5.07;;;;;;;;;;5071795;28;20522;-77
2023/05/15 11:11:05;;;;;;;8.10;5.07;;;;;;;;;;5071221;28;20076;-77
2023/05/15 11:14:14;;;;;;;8.43;5.00;;;;;;;;;;5071600;28;20127;-77
2023/05/15 11:17:04;;;;;;;11.68;6.88;;;;;;;;;;5023582;28;20131;-77
2023/05/15 11:19:56;;;;;;;8.85;5.70;;;;;;;;;;5065976;28;20127;-77
2023/05/15 11:22:30;;;;;;;12.68;6.10;;;;;;;;;;5071810;28;20410;-77
2023/05/15 11:25:01;;;;;;;12.52;7.30;;;;;;;;;;5071988;28;20056;-77
2023/05/15 11:27:31;;;;;;;9.18;5.90;;;;;;;;;;5071825;28;20045;-77
2023/05/15 11:30:14;;;;;;;15.70;11.55;;;;;;;;;;5073628;28;20133;-77
2023/05/15 11:32:48;;;;;;;10.10;5.68;;;;;;;;;;5073198;28;20085;-78
2023/05/15 11:35:20;;;;;;;8.70;5.85;;;;;;;;;;5072697;28;20051;-78
2023/05/15 11:37:48;;;;;;;9.35;6.50;;;;;;;;;;5072320;28;20051;-78
2023/05/15 11:40:20;;;;;;;9.38;5.72;;;;;;;;;;5072661;28;20051;-77
2023/05/15 11:42:59;;;;;;;7.43;5.35;;;;;;;;;;5072060;28;20055;-77
2023/05/15 11:45:26;;;;;;;10.80;5.32;;;;;;;;;;5072086;28;20060;-77
2023/05/15 11:47:53;;;;;;;8.65;5.78;;;;;;;;;;5071462;28;20458;-77
2023/05/15 11:50:34;;;;;;;11.35;6.25;;;;;;;;;;5071903;28;20048;-78
2023/05/15 11:53:05;;;;;;;8.20;5.50;;;;;;;;;;5071435;28;20049;-78
2023/05/15 11:55:33;;;;;;;8.55;5.85;;;;;;;;;;5071623;28;20056;-78
2023/05/15 11:58:00;;;;;;;7.55;4.50;;;;;;;;;;5071358;28;20491;-78
2023/05/15 12:00:27;;;;;;;4.53;2.10;;;;;;;;;;5071688;28;21041;-78
2023/05/15 12:02:54;;;;;;;5.07;2.10;;;;;;;;;;5071165;28;20053;-77
2023/05/15 12:05:20;;;;;;;5.18;2.65;;;;;;;;;;5071588;28;20098;-78
2023/05/15 12:07:49;;;;;;;4.50;2.53;;;;;;;;;;5071219;28;20410;-77
2023/05/15 12:10:15;;;;;;;8.52;3.85;;;;;;;;;;5071366;28;20045;-78
2023/05/15 12:12:44;;;;;;;6.28;3.47;;;;;;;;;;5070923;28;20129;-78
2023/05/15 12:15:12;;;;;;;5.70;3.47;;;;;;;;;;5071658;28;20049;-78
2023/05/15 12:17:39;;;;;;;5.55;3.38;;;;;;;;;;5071261;28;20098;-78
2023/05/15 12:20:09;;;;;;;4.88;3.30;;;;;;;;;;5071518;28;20090;-78
2023/05/15 12:22:37;;;;;;;7.30;3.85;;;;;;;;;;5073156;28;20053;-78
2023/05/15 12:25:06;;;;;;;5.35;3.42;;;;;;;;;;5074967;28;20140;-78
2023/05/15 12:27:34;;;;;;;6.77;3.50;;;;;;;;;;5074964;28;20059;-78
2023/05/15 12:30:01;;;;;;;6.60;3.80;;;;;;;;;;5075485;28;20044;-78
2023/05/15 12:32:31;;;;;;;6.10;3.92;;;;;;;;;;5075140;28;20051;-78
2023/05/15 12:34:57;;;;;;;6.55;4.10;;;;;;;;;;5075211;28;20543;-78
2023/05/15 12:37:24;;;;;;;7.65;3.83;;;;;;;;;;5075640;28;20049;-78
2023/05/15 12:39:53;;;;;;;5.90;4.10;;;;;;;;;;5075428;28;20495;-79
2023/05/15 12:42:21;;;;;;;5.35;3.80;;;;;;;;;;5075616;28;20049;-78
2023/05/15 12:44:51;;;;;;;5.93;4.22;;;;;;;;;;5075563;28;20127;-78
2023/05/15 12:47:22;;;;;;;6.32;3.70;;;;;;;;;;5076096;28;20114;-77
2023/05/15 12:49:49;;;;;;;7.57;4.78;;;;;;;;;;5075798;28;20054;-78
2023/05/15 12:52:15;;;;;;;9.48;5.75;;;;;;;;;;5074823;28;20083;-78
2023/05/15 12:54:44;;;;;;;7.55;5.80;;;;;;;;;;5074924;28;20044;-77
2023/05/15 12:57:11;;;;;;;6.18;3.38;;;;;;;;;;5074925;28;20135;-77
2023/05/15 12:59:40;;;;;;;5.40;3.90;;;;;;;;;;5074759;28;20131;-77
2023/05/15 13:02:10;;;;;;;6.68;3.95;;;;;;;;;;5074009;28;20123;-77
2023/05/15 13:04:37;;;;;;;7.25;4.38;;;;;;;;;;5074192;28;20044;-77
2023/05/15 13:07:04;;;;;;;6.35;4.60;;;;;;;;;;5074857;28;20040;-77
2023/05/15 13:09:32;;;;;;;7.07;4.75;;;;;;;;;;5074402;28;20049;-77
2023/05/15 13:12:01;;;;;;;5.72;4.38;;;;;;;;;;5073946;28;20056;-77
2023/05/15 13:14:28;;;;;;;7.63;5.07;;;;;;;;;;5074184;28;20071;-77
2023/05/15 13:16:59;;;;;;;6.30;4.00;;;;;;;;;;5074497;28;20083;-76
2023/05/15 13:19:26;;;;;;;10.35;7.55;;;;;;;;;;5081662;28;20072;-77
2023/05/15 13:21:52;;;;;;;7.72;5.65;;;;;;;;;;5089113;28;20104;-77
2023/05/15 13:24:19;;;;;;;8.32;5.57;;;;;;;;;;5075944;28;20144;-77
2023/05/15 13:26:46;;;;;;;7.55;5.82;;;;;;;;;;5075051;28;20059;-77
2023/05/15 13:29:12;;;;;;;7.78;5.38;;;;;;;;;;5073916;28;20127;-77
2023/05/15 13:31:39;;;;;;;7.40;5.22;;;;;;;;;;5073900;28;20052;-77
2023/05/15 13:34:07;;;;;;;6.78;4.20;;;;;;;;;;5072415;28;20499;-77
2023/05/15 13:36:34;;;;;;;7.10;4.32;;;;;;;;;;5074071;28;20068;-77
2023/05/15 13:39:02;;;;;;;6.57;4.20;;;;;;;;;;5073492;28;20049;-77
2023/05/15 13:41:29;;;;;;;6.47;4.25;;;;;;;;;;5073912;28;20488;-76
2023/05/15 13:43:55;;;;;;;7.20;4.13;;;;;;;;;;5073603;28;20079;-76
2023/05/15 13:46:22;;;;;;;6.20;3.85;;;;;;;;;;5073752;28;20463;-77
2023/05/15 13:48:49;;;;;;;5.88;4.18;;;;;;;;;;5073300;28;20074;-77
2023/05/15 13:51:17;;;;;;;5.78;3.53;;;;;;;;;;5073849;28;20079;-77
2023/05/15 13:53:44;;;;;;;6.22;3.70;;;;;;;;;;5073564;28;20559;-77
2023/05/15 13:56:10;;;;;;;5.80;3.70;;;;;;;;;;5074883;28;20052;-77
2023/05/15 13:58:39;;;;;;;7.40;4.63;;;;;;;;;;5074635;28;20120;-78
2023/05/15 14:01:06;;;;;;;6.35;4.40;;;;;;;;;;5073882;28;20503;-77
2023/05/15 14:03:33;;;;;;;6.35;4.00;;;;;;;;;;5072787;28;20083;-78
2023/05/15 14:06:00;;;;;;;6.93;4.22;;;;;;;;;;5073506;28;20060;-77
2023/05/15 14:08:28;;;;;;;6.97;4.50;;;;;;;;;;5073563;28;20044;-78
2023/05/15 14:10:54;;;;;;;7.30;4.50;;;;;;;;;;5073133;28;20513;-78
2023/05/15 14:13:22;;;;;;;6.22;3.78;;;;;;;;;;5073042;28;20498;-78
2023/05/15 14:15:49;;;;;;;4.55;3.30;;;;;;;;;;5073308;28;20041;-77
2023/05/15 14:18:15;;;;;;;5.22;3.60;;;;;;;;;;5073335;28;20127;-78
2023/05/15 14:20:42;;;;;;;5.80;3.50;;;;;;;;;;5072932;28;20439;-77
2023/05/15 14:23:09;;;;;;;5.90;3.67;;;;;;;;;;5072584;28;20104;-78
2023/05/15 14:25:36;;;;;;;6.15;3.72;;;;;;;;;;5072667;28;20545;-78
2023/05/15 14:28:03;;;;;;;4.47;2.50;;;;;;;;;;5073003;28;20087;-77
2023/05/15 14:30:33;;;;;;;3.67;2.67;;;;;;;;;;5072951;28;20051;-77
2023/05/15 14:33:00;;;;;;;4.55;2.60;;;;;;;;;;5072365;28;20055;-77
2023/05/15 14:35:27;;;;;;;4.78;2.90;;;;;;;;;;5072529;28;20487;-77
2023/05/15 14:37:54;;;;;;;4.50;2.80;;;;;;;;;;5072751;28;20044;-77
2023/05/15 14:40:20;;;;;;;5.28;2.70;;;;;;;;;;5072641;28;20090;-77
2023/05/15 14:42:48;;;;;;;5.53;3.20;;;;;;;;;;5071977;28;20076;-77
2023/05/15 14:45:15;;;;;;;5.80;3.75;;;;;;;;;;5072421;28;20097;-77
2023/05/15 14:47:42;;;;;;;5.85;3.45;;;;;;;;;;5072717;28;20052;-76